Shorkot Weather



Shorkot's Current Weather

Temprature 42.362o clear sky

clear sky

Rain: 0 %

Min Temprature42.362o
Max Temprature42.362o
Humidity20
Wind Speed4.02 m/h
Sun Rise05:10:09
Sun Set19:18:29
Current Time: 26-Jun-2019 15:12:36
Lat/Lon: 30.83, 72.08




Shorkot's Geo Location



Shorkot's Weather Forecast

Time Overall Temp Min Temp Max Temp Humidity Wind Speed Rain
26-Jun-2019 (Wed)
17:00:00 clear sky 43.050 43.050 43.050 16 3.29 m/h 0 %
20:00:00 clear sky 40.650 40.647 40.650 19 2.02 m/h 0 %
23:00:00 clear sky 38.640 38.640 38.640 22 3.47 m/h 0 %
27-Jun-2019 (Thu)
02:00:00 clear sky 35.780 35.779 35.780 29 3.7 m/h 0 %
05:00:00 light rain 34.665 34.665 34.665 31 2.51 m/h 50 %
08:00:00 scattered clouds 38.450 38.450 38.450 24 3.93 m/h 0 %
11:00:00 few clouds 43.474 43.474 43.474 17 4.3 m/h 0 %
14:00:00 clear sky 45.850 45.850 45.850 11 4.36 m/h 0 %
17:00:00 clear sky 45.880 45.880 45.880 9 3.69 m/h 0 %
20:00:00 few clouds 38.594 38.594 38.594 23 4.54 m/h 0 %
23:00:00 few clouds 37.535 37.535 37.535 24 4.08 m/h 0 %
28-Jun-2019 (Fri)
02:00:00 clear sky 36.128 36.128 36.128 27 2.32 m/h 0 %
05:00:00 clear sky 35.228 35.228 35.228 33 5.57 m/h 0 %
08:00:00 clear sky 37.379 37.379 37.379 33 5.78 m/h 0 %
11:00:00 clear sky 42.725 42.725 42.725 21 5.85 m/h 0 %
14:00:00 clear sky 45.731 45.731 45.731 14 5.63 m/h 0 %
17:00:00 clear sky 45.750 45.750 45.750 13 5.77 m/h 0 %
20:00:00 clear sky 42.450 42.450 42.450 16 4.58 m/h 0 %
23:00:00 clear sky 40.172 40.172 40.172 20 6.26 m/h 0 %
29-Jun-2019 (Sat)
02:00:00 clear sky 38.072 38.072 38.072 24 5.52 m/h 0 %
05:00:00 clear sky 35.669 35.669 35.669 34 6.93 m/h 0 %
08:00:00 clear sky 36.787 36.787 36.787 35 8.45 m/h 0 %
11:00:00 clear sky 42.450 42.450 42.450 22 7.78 m/h 0 %
14:00:00 clear sky 46.850 46.850 46.850 13 6.6 m/h 0 %
17:00:00 clear sky 46.491 46.491 46.491 11 6.11 m/h 0 %
20:00:00 clear sky 42.650 42.650 42.650 14 6.17 m/h 0 %
23:00:00 clear sky 40.050 40.050 40.050 18 6.66 m/h 0 %
30-Jun-2019 (Sun)
02:00:00 clear sky 37.946 37.946 37.946 24 7.08 m/h 0 %
05:00:00 clear sky 36.052 36.052 36.052 31 7.45 m/h 0 %
08:00:00 clear sky 36.662 36.662 36.662 40 8.79 m/h 0 %
11:00:00 clear sky 42.418 42.418 42.418 25 8.05 m/h 0 %
14:00:00 clear sky 46.808 46.808 46.808 14 6.82 m/h 0 %
17:00:00 clear sky 46.650 46.650 46.650 12 5.74 m/h 0 %
20:00:00 clear sky 43.150 43.150 43.150 14 5.87 m/h 0 %
23:00:00 clear sky 40.450 40.450 40.450 18 6.53 m/h 0 %
01-Jul-2019 (Mon)
02:00:00 clear sky 38.650 38.650 38.650 21 6.97 m/h 0 %
05:00:00 clear sky 36.335 36.335 36.335 41 8.61 m/h 0 %
08:00:00 clear sky 36.450 36.450 36.450 43 8.96 m/h 0 %
11:00:00 clear sky 43.450 43.450 43.450 23 8.47 m/h 0 %
14:00:00 clear sky 47.850 47.850 47.850 12 6.18 m/h 0 %

Famous Cities (60)